sensor_id;sensor_type;location;lat;lon;timestamp;pressure;altitude;pressure_sealevel;temperature;humidity
72587;BME280;60621;49.576;11.024;2023-03-22T00:00:01;98182.34;;;11.06;77.27
72587;BME280;60621;49.576;11.024;2023-03-22T00:01:08;98182.00;;;11.07;77.06
72587;BME280;60621;49.576;11.024;2023-03-22T00:02:10;98183.47;;;11.05;77.02
72587;BME280;60621;49.576;11.024;2023-03-22T00:03:12;98178.47;;;10.96;76.96
72587;BME280;60621;49.576;11.024;2023-03-22T00:04:13;98180.78;;;11.01;77.37
72587;BME280;60621;49.576;11.024;2023-03-22T00:05:15;98185.72;;;11.02;77.20
72587;BME280;60621;49.576;11.024;2023-03-22T00:06:17;98180.06;;;11.04;76.72
72587;BME280;60621;49.576;11.024;2023-03-22T00:07:18;98180.00;;;10.97;76.60
72587;BME280;60621;49.576;11.024;2023-03-22T00:08:20;98183.22;;;10.83;77.16
72587;BME280;60621;49.576;11.024;2023-03-22T00:09:21;98174.56;;;10.86;77.36
72587;BME280;60621;49.576;11.024;2023-03-22T00:10:24;98184.78;;;10.88;77.08
72587;BME280;60621;49.576;11.024;2023-03-22T00:11:26;98187.06;;;10.89;77.30
72587;BME280;60621;49.576;11.024;2023-03-22T00:12:29;98181.75;;;10.86;76.98
72587;BME280;60621;49.576;11.024;2023-03-22T00:13:32;98181.03;;;10.89;77.48
72587;BME280;60621;49.576;11.024;2023-03-22T00:14:36;98187.88;;;10.93;77.27
72587;BME280;60621;49.576;11.024;2023-03-22T00:15:37;98186.00;;;10.94;77.01
72587;BME280;60621;49.576;11.024;2023-03-22T00:16:39;98187.88;;;10.93;77.07
72587;BME280;60621;49.576;11.024;2023-03-22T00:17:41;98182.19;;;10.91;76.92
72587;BME280;60621;49.576;11.024;2023-03-22T00:18:44;98182.50;;;10.86;77.18
72587;BME280;60621;49.576;11.024;2023-03-22T00:19:46;98182.94;;;10.92;77.21
72587;BME280;60621;49.576;11.024;2023-03-22T00:20:50;98181.84;;;10.93;76.92
72587;BME280;60621;49.576;11.024;2023-03-22T00:21:52;98175.34;;;10.87;76.72
72587;BME280;60621;49.576;11.024;2023-03-22T00:22:53;98174.13;;;10.81;77.08
72587;BME280;60621;49.576;11.024;2023-03-22T00:23:55;98178.59;;;10.73;77.58
72587;BME280;60621;49.576;11.024;2023-03-22T00:24:57;98182.72;;;10.74;77.82
72587;BME280;60621;49.576;11.024;2023-03-22T00:25:58;98167.34;;;10.80;77.51
72587;BME280;60621;49.576;11.024;2023-03-22T00:27:00;98171.50;;;10.81;77.47
72587;BME280;60621;49.576;11.024;2023-03-22T00:28:02;98168.81;;;10.77;77.57
72587;BME280;60621;49.576;11.024;2023-03-22T00:29:04;98171.50;;;10.81;77.69
72587;BME280;60621;49.576;11.024;2023-03-22T00:30:06;98167.78;;;10.85;77.44
72587;BME280;60621;49.576;11.024;2023-03-22T00:31:09;98166.31;;;10.88;77.13
72587;BME280;60621;49.576;11.024;2023-03-22T00:32:10;98169.31;;;10.86;76.91
72587;BME280;60621;49.576;11.024;2023-03-22T00:33:12;98160.94;;;10.81;77.21
72587;BME280;60621;49.576;11.024;2023-03-22T00:34:14;98164.00;;;10.83;77.16
72587;BME280;60621;49.576;11.024;2023-03-22T00:35:15;98162.78;;;10.76;77.31
72587;BME280;60621;49.576;11.024;2023-03-22T00:36:17;98157.19;;;10.82;77.57
72587;BME280;60621;49.576;11.024;2023-03-22T00:37:18;98157.56;;;10.80;77.09
72587;BME280;60621;49.576;11.024;2023-03-22T00:38:20;98157.19;;;10.82;76.94
72587;BME280;60621;49.576;11.024;2023-03-22T00:39:32;98160.13;;;10.76;76.98
72587;BME280;60621;49.576;11.024;2023-03-22T00:40:34;98158.56;;;10.72;76.94
72587;BME280;60621;49.576;11.024;2023-03-22T00:41:35;98159.66;;;10.67;77.45
72587;BME280;60621;49.576;11.024;2023-03-22T00:42:38;98150.66;;;10.72;77.17
72587;BME280;60621;49.576;11.024;2023-03-22T00:43:44;98156.69;;;10.72;77.10
72587;BME280;60621;49.576;11.024;2023-03-22T00:44:49;98145.44;;;10.75;76.87
72587;BME280;60621;49.576;11.024;2023-03-22T00:45:50;98141.28;;;10.74;76.88
72587;BME280;60621;49.576;11.024;2023-03-22T00:46:53;98145.00;;;10.70;76.86
72587;BME280;60621;49.576;11.024;2023-03-22T00:47:54;98143.50;;;10.72;77.43
72587;BME280;60621;49.576;11.024;2023-03-22T00:48:56;98147.31;;;10.75;77.21
72587;BME280;60621;49.576;11.024;2023-03-22T00:49:58;98146.94;;;10.76;77.15
72587;BME280;60621;49.576;11.024;2023-03-22T00:51:00;98146.59;;;10.78;76.79
72587;BME280;60621;49.576;11.024;2023-03-22T00:52:01;98143.38;;;10.62;76.78
72587;BME280;60621;49.576;11.024;2023-03-22T00:53:03;98146.81;;;10.66;77.03
72587;BME280;60621;49.576;11.024;2023-03-22T00:54:05;98146.88;;;10.69;77.22
72587;BME280;60621;49.576;11.024;2023-03-22T00:55:06;98148.34;;;10.67;76.80
72587;BME280;60621;49.576;11.024;2023-03-22T00:56:08;98146.13;;;10.69;77.03
72587;BME280;60621;49.576;11.024;2023-03-22T00:57:10;98149.16;;;10.71;76.86
72587;BME280;60621;49.576;11.024;2023-03-22T00:58:14;98147.63;;;10.70;76.51
72587;BME280;60621;49.576;11.024;2023-03-22T00:59:16;98147.63;;;10.70;76.67
72587;BME280;60621;49.576;11.024;2023-03-22T01:00:17;98147.63;;;10.70;76.48
72587;BME280;60621;49.576;11.024;2023-03-22T01:01:19;98149.84;;;10.68;76.61
72587;BME280;60621;49.576;11.024;2023-03-22T01:02:21;98150.13;;;10.59;76.19
72587;BME280;60621;49.576;11.024;2023-03-22T01:03:30;98146.59;;;10.48;76.82
72587;BME280;60621;49.576;11.024;2023-03-22T01:04:32;98146.63;;;10.51;76.65
72587;BME280;60621;49.576;11.024;2023-03-22T01:05:35;98142.38;;;10.43;76.15
72587;BME280;60621;49.576;11.024;2023-03-22T01:06:37;98140.50;;;10.44;77.18
72587;BME280;60621;49.576;11.024;2023-03-22T01:07:39;98147.66;;;10.43;76.30
72587;BME280;60621;49.576;11.024;2023-03-22T01:08:42;98139.53;;;10.29;76.20
72587;BME280;60621;49.576;11.024;2023-03-22T01:09:44;98136.09;;;10.25;76.83
72587;BME280;60621;49.576;11.024;2023-03-22T01:10:45;98137.13;;;10.20;76.42
72587;BME280;60621;49.576;11.024;2023-03-22T01:11:47;98138.19;;;10.16;76.99
72587;BME280;60621;49.576;11.024;2023-03-22T01:12:49;98136.16;;;10.06;77.27
72587;BME280;60621;49.576;11.024;2023-03-22T01:13:53;98142.97;;;10.07;77.75
72587;BME280;60621;49.576;11.024;2023-03-22T01:14:55;98137.03;;;10.13;77.51
72587;BME280;60621;49.576;11.024;2023-03-22T01:15:56;98142.75;;;10.19;77.24
72587;BME280;60621;49.576;11.024;2023-03-22T01:16:58;98142.31;;;10.13;77.14
72587;BME280;60621;49.576;11.024;2023-03-22T01:18:00;98139.63;;;10.10;77.19
72587;BME280;60621;49.576;11.024;2023-03-22T01:19:02;98135.91;;;10.14;77.12
72587;BME280;60621;49.576;11.024;2023-03-22T01:20:04;98138.63;;;10.18;76.97
72587;BME280;60621;49.576;11.024;2023-03-22T01:21:07;98132.66;;;10.21;77.01
72587;BME280;60621;49.576;11.024;2023-03-22T01:22:09;98139.00;;;10.20;76.71
72587;BME280;60621;49.576;11.024;2023-03-22T01:23:10;98134.00;;;10.11;76.92
72587;BME280;60621;49.576;11.024;2023-03-22T01:24:12;98126.03;;;10.08;76.33
72587;BME280;60621;49.576;11.024;2023-03-22T01:25:13;98133.44;;;9.98;76.80
72587;BME280;60621;49.576;11.024;2023-03-22T01:26:15;98136.88;;;10.03;77.38
72587;BME280;60621;49.576;11.024;2023-03-22T01:27:16;98127.91;;;10.07;77.22
72587;BME280;60621;49.576;11.024;2023-03-22T01:28:18;98122.22;;;10.05;76.96
72587;BME280;60621;49.576;11.024;2023-03-22T01:29:20;98129.69;;;9.99;77.13
72587;BME280;60621;49.576;11.024;2023-03-22T01:30:21;98120.91;;;9.92;76.79
72587;BME280;60621;49.576;11.024;2023-03-22T01:31:22;98129.84;;;9.87;77.13
72587;BME280;60621;49.576;11.024;2023-03-22T01:32:24;98124.31;;;9.92;77.10
72587;BME280;60621;49.576;11.024;2023-03-22T01:33:26;98122.84;;;9.95;77.28
72587;BME280;60621;49.576;11.024;2023-03-22T01:34:27;98122.13;;;9.98;76.88
72587;BME280;60621;49.576;11.024;2023-03-22T01:35:28;98116.88;;;9.98;76.99
72587;BME280;60621;49.576;11.024;2023-03-22T01:36:31;98111.38;;;9.84;77.04
72587;BME280;60621;49.576;11.024;2023-03-22T01:37:33;98121.09;;;9.80;77.51
72587;BME280;60621;49.576;11.024;2023-03-22T01:38:34;98113.56;;;9.78;77.27
72587;BME280;60621;49.576;11.024;2023-03-22T01:39:36;98113.19;;;9.80;77.31
72587;BME280;60621;49.576;11.024;2023-03-22T01:40:37;98117.66;;;9.75;77.01
72587;BME280;60621;49.576;11.024;2023-03-22T01:41:39;98111.97;;;9.73;76.86
72587;BME280;60621;49.576;11.024;2023-03-22T01:42:41;98108.16;;;9.71;77.56
72587;BME280;60621;49.576;11.024;2023-03-22T01:43:42;98106.97;;;9.68;77.17
72587;BME280;60621;49.576;11.024;2023-03-22T01:46:14;98110.41;;;9.69;76.88
72587;BME280;60621;49.576;11.024;2023-03-22T01:47:15;98113.78;;;9.69;76.71
72587;BME280;60621;49.576;11.024;2023-03-22T01:48:18;98114.78;;;9.61;76.85
72587;BME280;60621;49.576;11.024;2023-03-22T01:49:22;98121.75;;;9.50;78.18
72587;BME280;60621;49.576;11.024;2023-03-22T01:50:26;98114.91;;;9.45;77.78
72587;BME280;60621;49.576;11.024;2023-03-22T01:51:28;98112.84;;;9.35;78.65
72587;BME280;60621;49.576;11.024;2023-03-22T01:52:30;98114.22;;;9.29;78.77
72587;BME280;60621;49.576;11.024;2023-03-22T01:53:37;98108.75;;;9.38;78.88
72587;BME280;60621;49.576;11.024;2023-03-22T01:54:43;98116.00;;;9.44;78.70
72587;BME280;60621;49.576;11.024;2023-03-22T01:55:45;98097.94;;;9.43;78.27
72587;BME280;60621;49.576;11.024;2023-03-22T01:56:48;98099.72;;;9.39;78.40
72587;BME280;60621;49.576;11.024;2023-03-22T01:57:49;98108.47;;;9.43;78.01
72587;BME280;60621;49.576;11.024;2023-03-22T01:58:53;98102.03;;;9.40;77.67
72587;BME280;60621;49.576;11.024;2023-03-22T01:59:55;98108.47;;;9.43;77.68
72587;BME280;60621;49.576;11.024;2023-03-22T02:00:57;98111.91;;;9.47;78.07
72587;BME280;60621;49.576;11.024;2023-03-22T02:01:59;98101.84;;;9.53;77.25
72587;BME280;60621;49.576;11.024;2023-03-22T02:03:04;98100.72;;;9.54;77.43
72587;BME280;60621;49.576;11.024;2023-03-22T02:04:18;98106.59;;;9.43;77.20
72587;BME280;60621;49.576;11.024;2023-03-22T02:05:24;98096.28;;;9.35;77.42
72587;BME280;60621;49.576;11.024;2023-03-22T02:06:26;98104.16;;;9.35;78.40
72587;BME280;60621;49.576;11.024;2023-03-22T02:07:30;98108.00;;;9.37;78.08
72587;BME280;60621;49.576;11.024;2023-03-22T02:08:32;98100.44;;;9.36;77.72
72587;BME280;60621;49.576;11.024;2023-03-22T02:09:37;98102.84;;;9.44;77.67
72587;BME280;60621;49.576;11.024;2023-03-22T02:10:42;98103.88;;;9.40;77.52
72587;BME280;60621;49.576;11.024;2023-03-22T02:11:57;98102.50;;;9.46;77.62
72587;BME280;60621;49.576;11.024;2023-03-22T02:13:18;98108.59;;;9.50;77.29
72587;BME280;60621;49.576;11.024;2023-03-22T02:14:50;98092.84;;;9.31;77.83
72587;BME280;60621;49.576;11.024;2023-03-22T02:16:10;98095.75;;;9.26;77.94
72587;BME280;60621;49.576;11.024;2023-03-22T02:18:40;98097.63;;;9.25;78.37
72587;BME280;60621;49.576;11.024;2023-03-22T02:24:15;98097.75;;;9.32;77.54
72587;BME280;60621;49.576;11.024;2023-03-22T02:28:28;98096.03;;;9.20;78.07
72587;BME280;60621;49.576;11.024;2023-03-22T02:29:40;98093.47;;;9.24;77.51
72587;BME280;60621;49.576;11.024;2023-03-22T02:40:14;98078.19;;;9.10;77.09
72587;BME280;60621;49.576;11.024;2023-03-22T02:41:54;98078.91;;;9.07;77.88
72587;BME280;60621;49.576;11.024;2023-03-22T02:45:34;98076.97;;;9.04;77.62
72587;BME280;60621;49.576;11.024;2023-03-22T02:47:55;98076.59;;;9.06;77.88
72587;BME280;60621;49.576;11.024;2023-03-22T02:50:28;98078.84;;;9.04;78.60
72587;BME280;60621;49.576;11.024;2023-03-22T02:51:53;98074.63;;;8.99;78.38
72587;BME280;60621;49.576;11.024;2023-03-22T02:53:02;98076.28;;;9.07;78.97
72587;BME280;60621;49.576;11.024;2023-03-22T02:54:12;98066.84;;;9.06;78.41
72587;BME280;60621;49.576;11.024;2023-03-22T02:56:45;98073.84;;;8.98;78.88
72587;BME280;60621;49.576;11.024;2023-03-22T02:57:56;98076.06;;;8.96;79.24
72587;BME280;60621;49.576;11.024;2023-03-22T02:59:02;98077.31;;;9.03;78.30
72587;BME280;60621;49.576;11.024;2023-03-22T03:00:05;98076.28;;;9.07;78.25
72587;BME280;60621;49.576;11.024;2023-03-22T03:01:18;98070.28;;;9.10;78.30
72587;BME280;60621;49.576;11.024;2023-03-22T03:02:22;98077.78;;;9.08;77.97
72587;BME280;60621;49.576;11.024;2023-03-22T03:03:25;98066.84;;;9.06;77.93
72587;BME280;60621;49.576;11.024;2023-03-22T03:04:32;98070.66;;;9.09;78.19
72587;BME280;60621;49.576;11.024;2023-03-22T03:05:41;98067.47;;;9.00;77.81
72587;BME280;60621;49.576;11.024;2023-03-22T03:06:46;98072.06;;;9.03;77.48
72587;BME280;60621;49.576;11.024;2023-03-22T03:07:55;98071.34;;;9.06;77.49
72587;BME280;60621;49.576;11.024;2023-03-22T03:08:58;98070.75;;;8.93;77.47
72587;BME280;60621;49.576;11.024;2023-03-22T03:10:03;98075.78;;;9.02;78.06
72587;BME280;60621;49.576;11.024;2023-03-22T03:11:07;98071.34;;;9.06;77.70
72587;BME280;60621;49.576;11.024;2023-03-22T03:12:23;98071.44;;;8.90;77.93
72587;BME280;60621;49.576;11.024;2023-03-22T03:13:25;98074.81;;;8.90;77.88
72587;BME280;60621;49.576;11.024;2023-03-22T03:14:29;98076.28;;;8.88;77.38
72587;BME280;60621;49.576;11.024;2023-03-22T03:15:31;98069.00;;;8.81;77.22
72587;BME280;60621;49.576;11.024;2023-03-22T03:16:32;98068.94;;;8.78;77.28
72587;BME280;60621;49.576;11.024;2023-03-22T03:17:56;98059.88;;;8.75;78.00
72587;BME280;60621;49.576;11.024;2023-03-22T03:21:38;98070.81;;;8.77;77.05
72587;BME280;60621;49.576;11.024;2023-03-22T03:22:49;98069.69;;;8.78;77.35
72587;BME280;60621;49.576;11.024;2023-03-22T03:27:54;98073.31;;;8.70;77.64
72587;BME280;60621;49.576;11.024;2023-03-22T03:29:04;98072.56;;;8.69;77.25
72587;BME280;60621;49.576;11.024;2023-03-22T03:30:17;98070.41;;;8.75;77.75
72587;BME280;60621;49.576;11.024;2023-03-22T03:31:31;98066.38;;;8.81;77.23
72587;BME280;60621;49.576;11.024;2023-03-22T03:32:42;98072.56;;;8.89;77.18
72587;BME280;60621;49.576;11.024;2023-03-22T03:35:19;98067.72;;;8.71;77.43
72587;BME280;60621;49.576;11.024;2023-03-22T03:36:27;98071.44;;;8.70;77.83
72587;BME280;60621;49.576;11.024;2023-03-22T03:37:44;98078.31;;;8.75;77.54
72587;BME280;60621;49.576;11.024;2023-03-22T03:38:49;98073.03;;;8.75;77.32
72587;BME280;60621;49.576;11.024;2023-03-22T03:40:03;98075.25;;;8.73;77.12
72587;BME280;60621;49.576;11.024;2023-03-22T03:41:13;98068.47;;;8.72;77.38
72587;BME280;60621;49.576;11.024;2023-03-22T03:42:17;98072.28;;;8.75;77.62
72587;BME280;60621;49.576;11.024;2023-03-22T03:43:19;98071.53;;;8.74;77.30
72587;BME280;60621;49.576;11.024;2023-03-22T03:44:29;98079.47;;;8.78;77.03
72587;BME280;60621;49.576;11.024;2023-03-22T03:45:33;98083.69;;;8.82;76.41
72587;BME280;60621;49.576;11.024;2023-03-22T03:46:36;98078.69;;;8.77;76.99
72587;BME280;60621;49.576;11.024;2023-03-22T03:47:38;98079.47;;;8.78;77.19
72587;BME280;60621;49.576;11.024;2023-03-22T03:48:44;98078.31;;;8.75;76.81
72587;BME280;60621;49.576;11.024;2023-03-22T03:49:48;98081.41;;;8.81;76.78
72587;BME280;60621;49.576;11.024;2023-03-22T03:50:51;98085.91;;;8.80;76.62
72587;BME280;60621;49.576;11.024;2023-03-22T03:51:54;98078.41;;;8.82;76.61
72587;BME280;60621;49.576;11.024;2023-03-22T03:52:56;98079.91;;;8.80;76.65
72587;BME280;60621;49.576;11.024;2023-03-22T03:53:58;98083.41;;;8.68;77.11
72587;BME280;60621;49.576;11.024;2023-03-22T03:54:59;98087.84;;;8.64;76.54
72587;BME280;60621;49.576;11.024;2023-03-22T03:56:01;98081.00;;;8.59;76.89
72587;BME280;60621;49.576;11.024;2023-03-22T03:57:02;98085.00;;;8.53;77.12
72587;BME280;60621;49.576;11.024;2023-03-22T03:58:04;98090.81;;;8.43;77.39
72587;BME280;60621;49.576;11.024;2023-03-22T03:59:06;98087.81;;;8.44;78.09
72587;BME280;60621;49.576;11.024;2023-03-22T04:00:09;98084.16;;;8.49;77.37
72587;BME280;60621;49.576;11.024;2023-03-22T04:01:11;98091.66;;;8.47;77.71
72587;BME280;60621;49.576;11.024;2023-03-22T04:02:12;98083.41;;;8.49;78.24
72587;BME280;60621;49.576;11.024;2023-03-22T04:03:14;98083.88;;;8.54;78.15
72587;BME280;60621;49.576;11.024;2023-03-22T04:04:22;98088.91;;;8.59;77.79
72587;BME280;60621;49.576;11.024;2023-03-22T04:05:27;98079.66;;;8.50;78.21
72587;BME280;60621;49.576;11.024;2023-03-22T04:06:29;98080.69;;;8.45;78.25
72587;BME280;60621;49.576;11.024;2023-03-22T04:07:30;98077.59;;;8.39;78.45
72587;BME280;60621;49.576;11.024;2023-03-22T04:08:32;98076.56;;;8.44;78.99
72587;BME280;60621;49.576;11.024;2023-03-22T04:09:36;98083.09;;;8.50;78.53
72587;BME280;60621;49.576;11.024;2023-03-22T04:10:38;98088.38;;;8.54;78.02
72587;BME280;60621;49.576;11.024;2023-03-22T04:11:46;98081.53;;;8.49;78.30
72587;BME280;60621;49.576;11.024;2023-03-22T04:12:47;98084.91;;;8.50;78.41
72587;BME280;60621;49.576;11.024;2023-03-22T04:13:49;98082.84;;;8.59;78.32
72587;BME280;60621;49.576;11.024;2023-03-22T04:14:51;98077.28;;;8.60;77.86
72587;BME280;60621;49.576;11.024;2023-03-22T04:15:59;98084.31;;;8.56;77.87
72587;BME280;60621;49.576;11.024;2023-03-22T04:17:02;98084.50;;;8.48;77.94
72587;BME280;60621;49.576;11.024;2023-03-22T04:18:04;98083.22;;;8.57;78.32
72587;BME280;60621;49.576;11.024;2023-03-22T04:19:07;98085.84;;;8.57;78.11
72587;BME280;60621;49.576;11.024;2023-03-22T04:20:09;98084.78;;;8.42;78.40
72587;BME280;60621;49.576;11.024;2023-03-22T04:21:12;98086.38;;;8.47;79.54
72587;BME280;60621;49.576;11.024;2023-03-22T04:22:16;98089.22;;;8.58;79.24
72587;BME280;60621;49.576;11.024;2023-03-22T04:23:18;98093.53;;;8.66;78.56
72587;BME280;60621;49.576;11.024;2023-03-22T04:24:22;98088.38;;;8.73;78.62
72587;BME280;60621;49.576;11.024;2023-03-22T04:25:24;98094.47;;;8.77;77.85
72587;BME280;60621;49.576;11.024;2023-03-22T04:26:30;98097.19;;;8.81;77.98
72587;BME280;60621;49.576;11.024;2023-03-22T04:27:32;98086.19;;;8.75;78.09
72587;BME280;60621;49.576;11.024;2023-03-22T04:28:34;98089.84;;;8.70;78.48
72587;BME280;60621;49.576;11.024;2023-03-22T04:29:35;98092.50;;;8.70;78.44
72587;BME280;60621;49.576;11.024;2023-03-22T04:30:37;98089.22;;;8.77;78.05
72587;BME280;60621;49.576;11.024;2023-03-22T04:31:39;98090.41;;;8.80;77.79
72587;BME280;60621;49.576;11.024;2023-03-22T04:32:41;98084.69;;;8.74;77.88
72587;BME280;60621;49.576;11.024;2023-03-22T04:33:43;98091.72;;;8.70;77.92
72587;BME280;60621;49.576;11.024;2023-03-22T04:34:48;98086.00;;;8.64;77.76
72587;BME280;60621;49.576;11.024;2023-03-22T04:35:50;98082.84;;;8.59;78.30
72587;BME280;60621;49.576;11.024;2023-03-22T04:36:57;98084.41;;;8.60;78.69
72587;BME280;60621;49.576;11.024;2023-03-22T04:38:03;98079.75;;;8.53;78.13
72587;BME280;60621;49.576;11.024;2023-03-22T04:39:07;98082.81;;;8.55;78.37
72587;BME280;60621;49.576;11.024;2023-03-22T04:40:09;98081.34;;;8.58;78.59
72587;BME280;60621;49.576;11.024;2023-03-22T04:41:17;98075.75;;;8.59;77.84
72587;BME280;60621;49.576;11.024;2023-03-22T04:42:19;98071.31;;;8.63;78.44
72587;BME280;60621;49.576;11.024;2023-03-22T04:43:21;98082.66;;;8.67;77.49
72587;BME280;60621;49.576;11.024;2023-03-22T04:44:23;98077.06;;;8.69;77.47
72587;BME280;60621;49.576;11.024;2023-03-22T04:45:24;98080.84;;;8.71;77.68
72587;BME280;60621;49.576;11.024;2023-03-22T04:46:30;98080.94;;;8.75;77.60
72587;BME280;60621;49.576;11.024;2023-03-22T04:47:32;98081.69;;;8.76;77.39
72587;BME280;60621;49.576;11.024;2023-03-22T04:48:40;98081.28;;;8.74;77.16
72587;BME280;60621;49.576;11.024;2023-03-22T04:49:42;98081.41;;;8.61;77.41
72587;BME280;60621;49.576;11.024;2023-03-22T04:50:43;98078.72;;;8.58;77.18
72587;BME280;60621;49.576;11.024;2023-03-22T04:51:45;98089.97;;;8.58;77.28
72587;BME280;60621;49.576;11.024;2023-03-22T04:52:47;98088.06;;;8.55;77.31
72587;BME280;60621;49.576;11.024;2023-03-22T04:53:50;98088.38;;;8.54;76.88
72587;BME280;60621;49.576;11.024;2023-03-22T04:54:52;98082.72;;;8.52;77.08
72587;BME280;60621;49.576;11.024;2023-03-22T04:55:54;98085.06;;;8.57;77.35
72587;BME280;60621;49.576;11.024;2023-03-22T04:56:59;98086.19;;;8.56;77.40
72587;BME280;60621;49.576;11.024;2023-03-22T04:58:01;98085.47;;;8.59;77.25
72587;BME280;60621;49.576;11.024;2023-03-22T04:59:02;98077.28;;;8.60;77.04
72587;BME280;60621;49.576;11.024;2023-03-22T05:00:04;98085.00;;;8.53;76.94
72587;BME280;60621;49.576;11.024;2023-03-22T05:01:10;98077.31;;;8.44;77.00
72587;BME280;60621;49.576;11.024;2023-03-22T05:02:12;98081.88;;;8.48;77.22
72587;BME280;60621;49.576;11.024;2023-03-22T05:03:13;98085.91;;;8.41;77.64
72587;BME280;60621;49.576;11.024;2023-03-22T05:04:19;98084.72;;;8.39;77.28
72587;BME280;60621;49.576;11.024;2023-03-22T05:05:21;98072.81;;;8.45;77.25
72587;BME280;60621;49.576;11.024;2023-03-22T05:06:22;98082.56;;;8.44;77.24
72587;BME280;60621;49.576;11.024;2023-03-22T05:07:24;98084.25;;;8.53;77.27
72587;BME280;60621;49.576;11.024;2023-03-22T05:08:28;98077.03;;;8.50;76.38
72587;BME280;60621;49.576;11.024;2023-03-22T05:09:30;98091.72;;;8.51;76.94
72587;BME280;60621;49.576;11.024;2023-03-22T05:10:31;98088.75;;;8.52;76.57
72587;BME280;60621;49.576;11.024;2023-03-22T05:11:33;98082.81;;;8.55;76.59
72587;BME280;60621;49.576;11.024;2023-03-22T05:12:34;98086.94;;;8.56;76.06
72587;BME280;60621;49.576;11.024;2023-03-22T05:13:36;98083.41;;;8.49;76.17
72587;BME280;60621;49.576;11.024;2023-03-22T05:14:37;98079.63;;;8.30;77.40
72587;BME280;60621;49.576;11.024;2023-03-22T05:15:39;98076.31;;;8.33;77.75
72587;BME280;60621;49.576;11.024;2023-03-22T05:16:42;98079.63;;;8.30;78.01
72587;BME280;60621;49.576;11.024;2023-03-22T05:17:43;98080.06;;;8.32;77.54
72587;BME280;60621;49.576;11.024;2023-03-22T05:18:45;98070.97;;;8.30;77.43
72587;BME280;60621;49.576;11.024;2023-03-22T05:19:46;98071.16;;;8.37;77.80
72587;BME280;60621;49.576;11.024;2023-03-22T05:20:48;98080.28;;;8.43;77.09
72587;BME280;60621;49.576;11.024;2023-03-22T05:21:51;98068.25;;;8.42;76.54
72587;BME280;60621;49.576;11.024;2023-03-22T05:22:58;98075.13;;;8.31;76.85
72587;BME280;60621;49.576;11.024;2023-03-22T05:24:03;98066.16;;;8.32;77.78
72587;BME280;60621;49.576;11.024;2023-03-22T05:25:06;98064.06;;;8.21;78.29
72587;BME280;60621;49.576;11.024;2023-03-22T05:26:09;98070.28;;;8.13;79.71
72587;BME280;60621;49.576;11.024;2023-03-22T05:27:10;98078.22;;;8.17;79.21
72587;BME280;60621;49.576;11.024;2023-03-22T05:28:14;98066.25;;;8.19;79.04
72587;BME280;60621;49.576;11.024;2023-03-22T05:29:16;98064.59;;;8.11;79.14
72587;BME280;60621;49.576;11.024;2023-03-22T05:30:18;98067.22;;;8.11;79.89
72587;BME280;60621;49.576;11.024;2023-03-22T05:31:20;98068.88;;;8.19;80.08
72587;BME280;60621;49.576;11.024;2023-03-22T05:32:22;98069.06;;;8.27;79.86
72587;BME280;60621;49.576;11.024;2023-03-22T05:33:26;98070.69;;;8.35;79.76
72587;BME280;60621;49.576;11.024;2023-03-22T05:34:28;98062.94;;;8.38;78.74
72587;BME280;60621;49.576;11.024;2023-03-22T05:35:38;98058.31;;;8.35;79.20
72587;BME280;60621;49.576;11.024;2023-03-22T05:36:40;98064.78;;;8.38;78.90
72587;BME280;60621;49.576;11.024;2023-03-22T05:37:43;98068.25;;;8.42;79.81
72587;BME280;60621;49.576;11.024;2023-03-22T05:38:47;98060.66;;;8.37;79.33
72587;BME280;60621;49.576;11.024;2023-03-22T05:39:49;98055.97;;;8.30;80.50
72587;BME280;60621;49.576;11.024;2023-03-22T05:40:51;98055.91;;;8.27;81.22
72587;BME280;60621;49.576;11.024;2023-03-22T05:41:52;98066.16;;;8.32;80.52
72587;BME280;60621;49.576;11.024;2023-03-22T05:42:54;98061.88;;;8.43;79.99
72587;BME280;60621;49.576;11.024;2023-03-22T05:43:56;98054.41;;;8.45;79.82
72587;BME280;60621;49.576;11.024;2023-03-22T05:44:58;98060.47;;;8.45;79.78
72587;BME280;60621;49.576;11.024;2023-03-22T05:45:59;98069.22;;;8.53;80.04
72587;BME280;60621;49.576;11.024;2023-03-22T05:47:01;98066.19;;;8.51;80.05
72587;BME280;60621;49.576;11.024;2023-03-22T05:48:03;98063.00;;;8.42;80.04
72587;BME280;60621;49.576;11.024;2023-03-22T05:49:05;98063.09;;;8.45;80.45
72587;BME280;60621;49.576;11.024;2023-03-22T05:50:08;98060.22;;;8.54;80.14
72587;BME280;60621;49.576;11.024;2023-03-22T05:51:12;98059.63;;;8.61;80.37
72587;BME280;60621;49.576;11.024;2023-03-22T05:52:17;98062.03;;;8.69;79.94
72587;BME280;60621;49.576;11.024;2023-03-22T05:53:19;98069.69;;;8.78;79.76
72587;BME280;60621;49.576;11.024;2023-03-22T05:54:20;98064.50;;;8.82;79.31
72587;BME280;60621;49.576;11.024;2023-03-22T05:55:22;98059.97;;;8.79;79.67
72587;BME280;60621;49.576;11.024;2023-03-22T05:56:23;98054.00;;;8.82;79.83
72587;BME280;60621;49.576;11.024;2023-03-22T05:57:25;98060.56;;;8.91;79.37
72587;BME280;60621;49.576;11.024;2023-03-22T05:58:28;98062.22;;;9.00;78.79
72587;BME280;60621;49.576;11.024;2023-03-22T05:59:31;98060.16;;;8.89;79.09
72587;BME280;60621;49.576;11.024;2023-03-22T06:00:32;98058.44;;;8.78;79.57
72587;BME280;60621;49.576;11.024;2023-03-22T06:01:34;98052.38;;;8.74;80.07
72587;BME280;60621;49.576;11.024;2023-03-22T06:02:35;98049.97;;;8.68;80.45
72587;BME280;60621;49.576;11.024;2023-03-22T06:03:38;98060.19;;;8.70;80.76
72587;BME280;60621;49.576;11.024;2023-03-22T06:04:39;98045.75;;;8.64;80.70
72587;BME280;60621;49.576;11.024;2023-03-22T06:05:41;98051.94;;;8.71;80.95
72587;BME280;60621;49.576;11.024;2023-03-22T06:06:43;98055.66;;;8.90;80.17
72587;BME280;60621;49.576;11.024;2023-03-22T06:07:44;98059.66;;;9.03;79.60
72587;BME280;60621;49.576;11.024;2023-03-22T06:08:46;98055.50;;;9.02;78.96
72587;BME280;60621;49.576;11.024;2023-03-22T06:09:47;98054.50;;;9.10;79.87
72587;BME280;60621;49.576;11.024;2023-03-22T06:10:51;98055.56;;;9.06;79.22